Machens, Missouri
Current Conditions -  °F | °C
As of 3:54 PM on Thursday 27 Nov 2014 (Local Time) from KSET Reporting Station
Clear Clear  
Wind Chill: 21°   Ceiling: Unl
Heat Index: 31°   Visibility: 10mi
Dew Point: 18°   Wind: 13mph
Humidity: 59%   Direction: 310°NW
Pressure: 30.46"   Gusts: NA
Location:  38.9266°N, 90.3904°W
Report Text: KSET 272154Z AUTO 31011KT 10SM CLR M01/M08 A3046 RMK AO2 SLP320 T10061078
Loading
Personal Weather Stations






























Interactive Weather Map New forecast layout! Learn more

10-Day Weather Forecast

Advertisements
Track Severe Weather on mobile